createdAt,value
2022-10-30T00:01:40.325Z,14.18
2022-10-30T00:04:10.073Z,14.17
2022-10-30T00:06:39.112Z,14.15
2022-10-30T00:09:08.886Z,14.15
2022-10-30T00:11:37.821Z,14.14
2022-10-30T00:14:07.395Z,14.14
2022-10-30T00:16:36.335Z,14.14
2022-10-30T00:19:05.569Z,14.13
2022-10-30T00:21:36.001Z,14.12
2022-10-30T00:24:07.903Z,14.12
2022-10-30T00:26:37.794Z,14.13
2022-10-30T00:29:07.386Z,14.14
2022-10-30T00:31:38.017Z,14.15
2022-10-30T00:34:07.045Z,14.13
2022-10-30T00:36:39.515Z,14.12
2022-10-30T00:39:08.277Z,14.11
2022-10-30T00:41:39.206Z,14.10
2022-10-30T00:44:47.332Z,14.12
2022-10-30T00:47:28.431Z,14.10
2022-10-30T00:50:08.941Z,14.09
2022-10-30T00:52:46.642Z,14.09
2022-10-30T00:55:19.895Z,14.07
2022-10-30T00:57:50.702Z,14.07
2022-10-30T01:00:22.962Z,14.06
2022-10-30T01:02:52.857Z,14.05
2022-10-30T01:05:23.225Z,14.05
2022-10-30T01:07:55.171Z,14.05
2022-10-30T01:10:23.831Z,14.04
2022-10-30T01:12:54.094Z,14.03
2022-10-30T01:15:33.569Z,14.03
2022-10-30T01:18:25.822Z,14.02
2022-10-30T01:21:21.781Z,14.02
2022-10-30T01:24:14.236Z,14.03
2022-10-30T01:27:08.372Z,14.01
2022-10-30T01:29:46.490Z,14.01
2022-10-30T01:32:39.289Z,13.99
2022-10-30T01:35:20.870Z,13.98
2022-10-30T01:38:04.129Z,13.97
2022-10-30T01:40:33.806Z,13.98
2022-10-30T01:43:02.706Z,13.96
2022-10-30T01:45:44.924Z,13.94
2022-10-30T01:49:01.952Z,13.93
2022-10-30T01:52:04.700Z,13.94
2022-10-30T01:55:02.166Z,13.94
2022-10-30T01:57:55.862Z,13.92
2022-10-30T02:00:25.420Z,13.90
2022-10-30T02:02:54.941Z,13.87
2022-10-30T02:05:44.765Z,13.85
2022-10-30T02:08:13.609Z,13.84
2022-10-30T02:10:44.812Z,13.84
2022-10-30T02:13:14.792Z,13.82
2022-10-30T02:15:46.321Z,13.79
2022-10-30T02:18:15.812Z,13.78
2022-10-30T02:20:44.297Z,13.79
2022-10-30T02:23:15.467Z,13.79
2022-10-30T02:25:47.604Z,13.78
2022-10-30T02:28:18.339Z,13.76
2022-10-30T02:30:49.498Z,13.77
2022-10-30T02:33:20.405Z,13.77
2022-10-30T02:35:52.481Z,13.76
2022-10-30T02:38:22.144Z,13.75
2022-10-30T02:40:53.102Z,13.72
2022-10-30T02:43:22.057Z,13.70
2022-10-30T02:45:52.672Z,13.68
2022-10-30T02:48:23.866Z,13.68
2022-10-30T02:50:53.604Z,13.65
2022-10-30T02:53:23.758Z,13.64
2022-10-30T02:55:52.872Z,13.62
2022-10-30T02:58:23.112Z,13.61
2022-10-30T03:00:52.735Z,13.58
2022-10-30T03:03:24.110Z,13.57
2022-10-30T03:05:53.199Z,13.55
2022-10-30T03:08:23.420Z,13.54
2022-10-30T03:10:52.695Z,13.55
2022-10-30T03:13:21.962Z,13.53
2022-10-30T03:15:51.093Z,13.54
2022-10-30T03:18:20.748Z,13.53
2022-10-30T03:20:49.848Z,13.51
2022-10-30T03:23:19.003Z,13.49
2022-10-30T03:25:47.956Z,13.46
2022-10-30T03:28:16.869Z,13.46
2022-10-30T03:30:46.205Z,13.44
2022-10-30T03:33:16.307Z,13.43
2022-10-30T03:35:45.401Z,13.41
2022-10-30T03:38:15.142Z,13.37
2022-10-30T03:40:44.601Z,13.37
2022-10-30T03:43:13.723Z,13.35
2022-10-30T03:45:49.588Z,13.34
2022-10-30T03:48:22.278Z,13.33
2022-10-30T03:50:57.917Z,13.32
2022-10-30T03:53:28.336Z,13.29
2022-10-30T03:56:00.500Z,13.26
2022-10-30T03:58:30.319Z,13.26
2022-10-30T04:01:04.527Z,13.25
2022-10-30T04:03:37.374Z,13.24
2022-10-30T04:06:09.248Z,13.23
2022-10-30T04:08:40.037Z,13.21
2022-10-30T04:11:11.628Z,13.18
2022-10-30T04:13:42.978Z,13.16
2022-10-30T04:16:13.491Z,13.16
2022-10-30T04:18:43.416Z,13.16
2022-10-30T04:21:15.126Z,13.15
2022-10-30T04:23:45.419Z,13.17
2022-10-30T04:26:15.573Z,13.18
2022-10-30T04:28:48.257Z,13.15
2022-10-30T04:31:18.068Z,13.16
2022-10-30T04:33:48.306Z,13.14
2022-10-30T04:36:18.353Z,13.12
2022-10-30T04:38:47.831Z,13.13
2022-10-30T04:41:17.788Z,13.15
2022-10-30T04:43:51.245Z,13.14
2022-10-30T04:46:20.445Z,13.15
2022-10-30T04:48:50.666Z,13.17
2022-10-30T04:51:21.425Z,13.17
2022-10-30T04:53:50.355Z,13.17
2022-10-30T04:56:19.786Z,13.17
2022-10-30T04:58:50.020Z,13.17
2022-10-30T05:01:20.063Z,13.17
2022-10-30T05:03:52.044Z,13.16
2022-10-30T05:06:25.250Z,13.15
2022-10-30T05:08:56.008Z,13.16
2022-10-30T05:11:30.992Z,13.15
2022-10-30T05:14:00.902Z,13.16
2022-10-30T05:16:31.693Z,13.16
2022-10-30T05:19:03.017Z,13.15
2022-10-30T05:21:33.327Z,13.16
2022-10-30T05:24:03.692Z,13.15
2022-10-30T05:26:35.997Z,13.14
2022-10-30T05:29:06.377Z,13.13
2022-10-30T05:31:35.737Z,13.13
2022-10-30T05:34:09.111Z,13.12
2022-10-30T05:36:40.233Z,13.11
2022-10-30T05:39:10.887Z,13.12
2022-10-30T05:41:42.185Z,13.14
2022-10-30T05:44:12.261Z,13.14
2022-10-30T05:46:43.550Z,13.15
2022-10-30T05:49:27.812Z,13.15
2022-10-30T05:51:58.654Z,13.15
2022-10-30T05:54:28.375Z,13.13
2022-10-30T05:57:02.449Z,13.14
2022-10-30T05:59:31.966Z,13.16
2022-10-30T06:02:00.795Z,13.17
2022-10-30T06:04:31.708Z,13.17
2022-10-30T06:07:02.054Z,13.18
2022-10-30T06:09:31.082Z,13.19
2022-10-30T06:12:02.243Z,13.20
2022-10-30T06:14:37.188Z,13.21
2022-10-30T06:17:08.182Z,13.20
2022-10-30T06:19:54.356Z,13.20
2022-10-30T06:22:31.338Z,13.24
2022-10-30T06:25:03.054Z,13.20
2022-10-30T06:27:36.944Z,13.18
2022-10-30T06:30:08.352Z,13.18
2022-10-30T06:32:39.636Z,13.17
2022-10-30T06:35:10.706Z,13.14
2022-10-30T06:37:48.423Z,13.13
2022-10-30T06:40:18.168Z,13.15
2022-10-30T06:42:51.901Z,13.16
2022-10-30T06:45:26.136Z,13.19
2022-10-30T06:47:56.671Z,13.20
2022-10-30T06:50:26.351Z,13.22
2022-10-30T06:52:57.107Z,13.26
2022-10-30T06:55:27.871Z,13.27
2022-10-30T06:58:16.125Z,13.27
2022-10-30T07:00:47.182Z,13.29
2022-10-30T07:03:34.453Z,13.30
2022-10-30T07:06:04.503Z,13.32
2022-10-30T07:08:34.585Z,13.33
2022-10-30T07:11:05.578Z,13.36
2022-10-30T07:13:53.339Z,13.37
2022-10-30T07:16:39.409Z,13.33
2022-10-30T07:19:09.370Z,13.27
2022-10-30T07:21:40.484Z,13.24
2022-10-30T07:24:10.431Z,13.22
2022-10-30T07:26:48.492Z,13.21
2022-10-30T07:29:26.128Z,13.24
2022-10-30T07:32:10.827Z,13.26
2022-10-30T07:34:47.668Z,13.26
2022-10-30T07:37:36.430Z,13.25
2022-10-30T07:40:13.189Z,13.25
2022-10-30T07:42:47.852Z,13.23
2022-10-30T07:45:31.589Z,13.22
2022-10-30T07:48:19.394Z,13.21
2022-10-30T07:50:51.841Z,13.18
2022-10-30T07:53:22.415Z,13.18
2022-10-30T07:55:52.074Z,13.18
2022-10-30T07:58:45.201Z,13.15
2022-10-30T08:01:14.432Z,13.13
2022-10-30T08:03:45.651Z,13.11
2022-10-30T08:06:22.960Z,13.12
2022-10-30T08:08:52.547Z,13.11
2022-10-30T08:11:30.768Z,13.11
2022-10-30T08:14:01.490Z,13.11
2022-10-30T08:16:31.693Z,13.10
2022-10-30T08:19:01.238Z,13.10
2022-10-30T08:21:30.962Z,13.09
2022-10-30T08:24:02.656Z,13.10
2022-10-30T08:26:35.399Z,13.12
2022-10-30T08:29:05.094Z,13.16
2022-10-30T08:31:35.446Z,13.17
2022-10-30T08:34:05.276Z,13.18
2022-10-30T08:36:38.944Z,13.20
2022-10-30T08:39:08.239Z,13.25
2022-10-30T08:41:49.755Z,13.27
2022-10-30T08:44:22.210Z,13.32
2022-10-30T08:47:09.696Z,13.32
2022-10-30T08:49:41.451Z,13.32
2022-10-30T08:52:10.878Z,13.32
2022-10-30T08:54:42.728Z,13.31
2022-10-30T08:57:13.452Z,13.27
2022-10-30T08:59:42.663Z,13.26
2022-10-30T09:02:14.741Z,13.28
2022-10-30T09:05:02.753Z,13.28
2022-10-30T09:07:43.996Z,13.27
2022-10-30T09:10:20.161Z,13.28
2022-10-30T09:12:57.211Z,13.27
2022-10-30T09:15:27.821Z,13.27
2022-10-30T09:18:01.496Z,13.27
2022-10-30T09:20:33.414Z,13.28
2022-10-30T09:23:03.363Z,13.30
2022-10-30T09:25:33.126Z,13.30
2022-10-30T09:28:16.656Z,13.30
2022-10-30T09:30:52.184Z,13.30
2022-10-30T09:33:21.827Z,13.33
2022-10-30T09:35:59.441Z,13.37
2022-10-30T09:38:30.252Z,13.42
2022-10-30T09:41:17.516Z,13.47
2022-10-30T09:44:08.748Z,13.50
2022-10-30T09:46:54.505Z,13.52
2022-10-30T09:49:44.077Z,13.49
2022-10-30T09:52:29.698Z,13.49
2022-10-30T09:55:25.891Z,13.47
2022-10-30T09:58:19.488Z,13.47
2022-10-30T10:01:13.823Z,13.49
2022-10-30T10:04:02.188Z,13.49
2022-10-30T10:06:34.217Z,13.52
2022-10-30T10:09:10.077Z,13.52
2022-10-30T10:12:09.977Z,13.52
2022-10-30T10:14:45.097Z,13.54
2022-10-30T10:17:20.134Z,13.54
2022-10-30T10:19:59.974Z,13.53
2022-10-30T10:22:43.099Z,13.56
2022-10-30T10:25:15.112Z,13.57
2022-10-30T10:28:02.184Z,13.60
2022-10-30T10:30:43.086Z,13.61
2022-10-30T10:33:25.836Z,13.59
2022-10-30T10:36:03.335Z,13.60
2022-10-30T10:38:46.971Z,13.61
2022-10-30T10:41:53.851Z,13.62
2022-10-30T10:44:33.144Z,13.62
2022-10-30T10:47:16.060Z,13.64
2022-10-30T10:50:22.219Z,13.67
2022-10-30T10:53:02.225Z,13.69
2022-10-30T10:55:36.440Z,13.71
2022-10-30T10:58:30.009Z,13.71
2022-10-30T11:00:59.085Z,13.71
2022-10-30T11:03:33.488Z,13.74
2022-10-30T11:06:27.742Z,13.77
2022-10-30T11:09:19.446Z,13.78
2022-10-30T11:11:49.574Z,13.78
2022-10-30T11:14:23.258Z,13.78
2022-10-30T11:17:15.427Z,13.80
2022-10-30T11:19:47.875Z,13.83
2022-10-30T11:22:24.301Z,13.86
2022-10-30T11:24:53.373Z,13.84
2022-10-30T11:27:28.151Z,13.83
2022-10-30T11:30:05.516Z,13.85
2022-10-30T11:32:35.143Z,13.88
2022-10-30T11:35:12.542Z,13.89
2022-10-30T11:37:42.929Z,13.89
2022-10-30T11:40:23.224Z,13.90
2022-10-30T11:43:01.293Z,13.90
2022-10-30T11:45:41.429Z,13.92
2022-10-30T11:48:21.955Z,13.95
2022-10-30T11:50:52.978Z,13.96
2022-10-30T11:53:38.139Z,13.94
2022-10-30T11:56:17.291Z,13.93
2022-10-30T11:58:52.403Z,13.94
2022-10-30T12:01:35.821Z,13.94
2022-10-30T12:04:22.846Z,13.91
2022-10-30T12:07:16.417Z,13.89
2022-10-30T12:09:49.670Z,13.87
2022-10-30T12:12:34.073Z,13.85
2022-10-30T12:15:17.724Z,13.85
2022-10-30T12:18:01.851Z,13.83
2022-10-30T12:20:32.949Z,13.82
2022-10-30T12:23:22.283Z,13.80
2022-10-30T12:25:57.415Z,13.82
2022-10-30T12:28:28.637Z,13.82
2022-10-30T12:31:08.789Z,13.84
2022-10-30T12:33:52.364Z,13.85
2022-10-30T12:36:26.958Z,13.85
2022-10-30T12:39:06.979Z,13.84
2022-10-30T12:41:45.124Z,13.85
2022-10-30T12:44:27.938Z,13.87
2022-10-30T12:47:22.312Z,13.89
2022-10-30T12:49:52.276Z,13.88
2022-10-30T12:52:47.044Z,13.87
2022-10-30T12:55:39.434Z,13.87
2022-10-30T12:59:03.522Z,13.87
2022-10-30T13:01:37.136Z,13.86
2022-10-30T13:04:25.479Z,13.85
2022-10-30T13:07:41.856Z,13.82
2022-10-30T13:10:36.604Z,13.80
2022-10-30T13:13:34.706Z,13.80
2022-10-30T13:16:10.335Z,13.79
2022-10-30T13:18:39.614Z,13.79
2022-10-30T13:21:31.976Z,13.79
2022-10-30T13:24:19.658Z,13.75
2022-10-30T13:26:54.335Z,13.72
2022-10-30T13:29:50.683Z,13.71
2022-10-30T13:32:40.451Z,13.69
2022-10-30T13:35:41.959Z,13.68
2022-10-30T13:38:42.649Z,13.64
2022-10-30T13:41:44.688Z,13.64
2022-10-30T13:44:44.993Z,13.61
2022-10-30T13:47:44.059Z,13.58
2022-10-30T13:50:31.835Z,13.54
2022-10-30T13:53:02.872Z,13.53
2022-10-30T13:55:33.948Z,13.49
2022-10-30T13:58:16.990Z,13.47
2022-10-30T14:01:09.075Z,13.45
2022-10-30T14:03:55.391Z,13.44
2022-10-30T14:07:10.943Z,13.42
2022-10-30T14:09:45.793Z,13.43
2022-10-30T14:12:52.388Z,13.43
2022-10-30T14:15:33.931Z,13.43
2022-10-30T14:18:26.908Z,13.39
2022-10-30T14:20:57.629Z,13.35
2022-10-30T14:23:36.196Z,13.34
2022-10-30T14:26:13.811Z,13.32
2022-10-30T14:28:44.956Z,13.30
2022-10-30T14:31:18.598Z,13.26
2022-10-30T14:33:51.593Z,13.21
2022-10-30T14:36:36.534Z,13.18
2022-10-30T14:39:14.514Z,13.15
2022-10-30T14:42:28.517Z,13.16
2022-10-30T14:45:02.704Z,13.14
2022-10-30T14:48:15.053Z,13.13
2022-10-30T14:51:09.769Z,13.12
2022-10-30T14:54:07.016Z,13.10
2022-10-30T14:56:49.737Z,13.08
2022-10-30T14:59:23.682Z,13.04
2022-10-30T15:02:16.153Z,12.98
2022-10-30T15:05:21.737Z,12.96
2022-10-30T15:07:59.838Z,12.92
2022-10-30T15:10:36.088Z,12.88
2022-10-30T15:13:19.439Z,12.85
2022-10-30T15:16:08.579Z,12.82
2022-10-30T15:18:37.649Z,12.81
2022-10-30T15:21:08.507Z,12.80
2022-10-30T15:23:38.289Z,12.80
2022-10-30T15:26:11.786Z,12.78
2022-10-30T15:28:42.081Z,12.77
2022-10-30T15:31:28.330Z,12.76
2022-10-30T15:33:58.101Z,12.75
2022-10-30T15:36:39.061Z,12.73
2022-10-30T15:39:17.421Z,12.70
2022-10-30T15:42:00.381Z,12.68
2022-10-30T15:44:32.811Z,12.64
2022-10-30T15:47:04.489Z,12.62
2022-10-30T15:49:38.814Z,12.60
2022-10-30T15:52:21.535Z,12.59
2022-10-30T15:54:55.782Z,12.58
2022-10-30T15:57:57.357Z,12.56
2022-10-30T16:00:06.165Z,12.55
2022-10-30T16:02:36.469Z,12.53
2022-10-30T16:05:23.408Z,12.52
2022-10-30T16:07:59.743Z,12.50
2022-10-30T16:10:35.886Z,12.47
2022-10-30T16:13:05.409Z,12.47
2022-10-30T16:15:36.088Z,12.46
2022-10-30T16:18:15.219Z,12.45
2022-10-30T16:20:47.777Z,12.44
2022-10-30T16:23:18.296Z,12.41
2022-10-30T16:25:48.383Z,12.38
2022-10-30T16:28:37.874Z,12.36
2022-10-30T16:31:08.355Z,12.35
2022-10-30T16:33:40.501Z,12.32
2022-10-30T16:36:14.707Z,12.31
2022-10-30T16:38:46.612Z,12.27
2022-10-30T16:41:16.484Z,12.27
2022-10-30T16:43:50.986Z,12.23
2022-10-30T16:46:53.014Z,12.23
2022-10-30T16:49:27.862Z,12.21
2022-10-30T16:52:04.884Z,12.17
2022-10-30T16:54:40.774Z,12.14
2022-10-30T16:57:23.562Z,12.12
2022-10-30T16:59:53.604Z,12.11
2022-10-30T17:02:27.621Z,12.10
2022-10-30T17:05:10.108Z,12.07
2022-10-30T17:07:39.807Z,12.05
2022-10-30T17:10:38.525Z,12.01
2022-10-30T17:13:41.458Z,11.98
2022-10-30T17:16:25.696Z,11.96
2022-10-30T17:19:02.873Z,11.93
2022-10-30T17:21:40.983Z,11.90
2022-10-30T17:24:22.510Z,11.89
2022-10-30T17:26:57.588Z,11.88
2022-10-30T17:29:44.256Z,11.87
2022-10-30T17:32:23.751Z,11.87
2022-10-30T17:35:10.748Z,11.85
2022-10-30T17:37:39.597Z,11.83
2022-10-30T17:40:10.574Z,11.82
2022-10-30T17:42:39.934Z,11.80
2022-10-30T17:45:13.747Z,11.78
2022-10-30T17:47:44.512Z,11.77
2022-10-30T17:50:15.259Z,11.74
2022-10-30T17:52:46.077Z,11.72
2022-10-30T17:55:23.852Z,11.70
2022-10-30T17:57:53.587Z,11.69
2022-10-30T18:00:23.297Z,11.65
2022-10-30T18:02:53.442Z,11.67
2022-10-30T18:05:25.802Z,11.66
2022-10-30T18:07:56.236Z,11.64
2022-10-30T18:10:26.780Z,11.63
2022-10-30T18:12:55.956Z,11.64
2022-10-30T18:15:32.866Z,11.64
2022-10-30T18:18:04.297Z,11.63
2022-10-30T18:20:34.661Z,11.62
2022-10-30T18:23:12.773Z,11.60
2022-10-30T18:25:43.828Z,11.57
2022-10-30T18:28:14.662Z,11.53
2022-10-30T18:30:53.736Z,11.52
2022-10-30T18:33:22.774Z,11.49
2022-10-30T18:35:56.954Z,11.46
2022-10-30T18:38:28.521Z,11.47
2022-10-30T18:40:59.397Z,11.43
2022-10-30T18:43:28.238Z,11.43
2022-10-30T18:45:57.766Z,11.41
2022-10-30T18:48:29.168Z,11.40
2022-10-30T18:50:58.348Z,11.39
2022-10-30T18:53:32.729Z,11.38
2022-10-30T18:55:59.300Z,11.38
2022-10-30T18:58:28.650Z,11.37
2022-10-30T19:01:11.474Z,11.35
2022-10-30T19:03:31.401Z,11.34
2022-10-30T19:06:00.811Z,11.33
2022-10-30T19:08:29.992Z,11.33
2022-10-30T19:11:10.712Z,11.31
2022-10-30T19:13:42.719Z,11.31
2022-10-30T19:16:15.047Z,11.30
2022-10-30T19:18:44.979Z,11.27
2022-10-30T19:21:22.676Z,11.27
2022-10-30T19:23:56.225Z,11.27
2022-10-30T19:26:26.089Z,11.26
2022-10-30T19:28:56.629Z,11.23
2022-10-30T19:31:26.226Z,11.22
2022-10-30T19:33:57.872Z,11.23
2022-10-30T19:36:36.905Z,11.23
2022-10-30T19:39:16.015Z,11.24
2022-10-30T19:41:46.548Z,11.24
2022-10-30T19:44:17.726Z,11.23
2022-10-30T19:46:47.345Z,11.24
2022-10-30T19:49:20.396Z,11.22
2022-10-30T19:51:49.660Z,11.21
2022-10-30T19:54:18.452Z,11.19
2022-10-30T19:56:47.786Z,11.18
2022-10-30T19:59:18.624Z,11.18
2022-10-30T20:01:48.855Z,11.16
2022-10-30T20:04:18.782Z,11.17
2022-10-30T20:06:49.070Z,11.16
2022-10-30T20:09:18.201Z,11.15
2022-10-30T20:11:48.488Z,11.15
2022-10-30T20:14:17.728Z,11.15
2022-10-30T20:16:48.407Z,11.15
2022-10-30T20:19:30.452Z,11.16
2022-10-30T20:22:00.477Z,11.13
2022-10-30T20:24:30.445Z,11.10
2022-10-30T20:26:59.603Z,11.09
2022-10-30T20:29:28.927Z,11.08
2022-10-30T20:31:57.799Z,11.07
2022-10-30T20:34:28.893Z,11.06
2022-10-30T20:36:59.449Z,11.04
2022-10-30T20:39:28.023Z,11.03
2022-10-30T20:41:58.798Z,11.03
2022-10-30T20:44:28.321Z,11.04
2022-10-30T20:46:57.861Z,11.00
2022-10-30T20:49:40.244Z,11.00
2022-10-30T20:52:09.477Z,10.99
2022-10-30T20:54:39.189Z,10.98
2022-10-30T20:57:08.510Z,10.98
2022-10-30T20:59:38.761Z,10.98
2022-10-30T21:02:11.570Z,10.96
2022-10-30T21:04:43.108Z,10.93
2022-10-30T21:07:13.718Z,10.90
2022-10-30T21:09:43.154Z,10.89
2022-10-30T21:12:13.048Z,10.89
2022-10-30T21:14:43.239Z,10.88
2022-10-30T21:17:12.915Z,10.88
2022-10-30T21:19:42.265Z,10.88
2022-10-30T21:22:11.286Z,10.88
2022-10-30T21:24:40.374Z,10.84
2022-10-30T21:27:10.169Z,10.84
2022-10-30T21:29:40.052Z,10.81
2022-10-30T21:32:10.228Z,10.80
2022-10-30T21:34:39.208Z,10.79
2022-10-30T21:37:08.340Z,10.78
2022-10-30T21:39:37.809Z,10.77
2022-10-30T21:42:08.477Z,10.77
2022-10-30T21:44:37.564Z,10.76
2022-10-30T21:47:06.659Z,10.74
2022-10-30T21:49:35.776Z,10.70
2022-10-30T21:52:06.366Z,10.69
2022-10-30T21:54:36.482Z,10.71
2022-10-30T21:57:06.574Z,10.69
2022-10-30T21:59:35.921Z,10.67
2022-10-30T22:02:05.721Z,10.64
2022-10-30T22:04:34.935Z,10.63
2022-10-30T22:07:03.860Z,10.59
2022-10-30T22:09:34.317Z,10.58
2022-10-30T22:12:05.429Z,10.59
2022-10-30T22:14:34.911Z,10.60
2022-10-30T22:17:03.575Z,10.58
2022-10-30T22:19:34.175Z,10.56
2022-10-30T22:22:04.390Z,10.55
2022-10-30T22:24:34.324Z,10.53
2022-10-30T22:27:04.075Z,10.50
2022-10-30T22:29:34.188Z,10.46
2022-10-30T22:32:03.830Z,10.44
2022-10-30T22:34:33.189Z,10.42
2022-10-30T22:37:02.148Z,10.41
2022-10-30T22:39:32.224Z,10.39
2022-10-30T22:42:01.151Z,10.39
2022-10-30T22:44:29.979Z,10.38
2022-10-30T22:46:58.665Z,10.35
2022-10-30T22:49:27.997Z,10.33
2022-10-30T22:51:56.794Z,10.30
2022-10-30T22:54:26.980Z,10.29
2022-10-30T22:56:56.473Z,10.27
2022-10-30T22:59:27.528Z,10.27
2022-10-30T23:01:57.384Z,10.25
2022-10-30T23:04:27.181Z,10.25
2022-10-30T23:06:55.947Z,10.24
2022-10-30T23:09:25.457Z,10.23
2022-10-30T23:11:54.153Z,10.22
2022-10-30T23:14:24.624Z,10.22
2022-10-30T23:16:53.807Z,10.21
2022-10-30T23:19:23.652Z,10.19
2022-10-30T23:21:57.254Z,10.18
2022-10-30T23:24:26.453Z,10.14
2022-10-30T23:26:56.207Z,10.14
2022-10-30T23:29:25.859Z,10.15
2022-10-30T23:31:55.167Z,10.13
2022-10-30T23:34:25.215Z,10.14
2022-10-30T23:36:59.131Z,10.12
2022-10-30T23:39:28.355Z,10.10
2022-10-30T23:41:57.340Z,10.09
2022-10-30T23:44:28.467Z,10.08
2022-10-30T23:46:58.644Z,10.07
2022-10-30T23:49:33.093Z,10.06
2022-10-30T23:51:58.740Z,10.03
2022-10-30T23:54:29.069Z,10.03
2022-10-30T23:56:57.991Z,10.01
2022-10-30T23:59:27.481Z,9.99
